Terminal Aerodrome Forecast
Issued by NWS Tampa Bay Area, FL

Home | Current Version | Previous Version | Text Only | Print | Product List | Glossary On
Versions: 1 2 3 4 5 6 7 8 9 10 11 12 13 14
000
FTUS42 KTBW 251403 AAA
TAFFMY
TAF AMD
KFMY 251403Z 2514/2612 11012G17KT P6SM FEW030
     FM251800 09012G17KT P6SM SCT050
     FM260100 08009KT P6SM SCT060
     FM260500 06006KT P6SM SKC=

USA.gov is the U.S. government's official web portal to all federal, state and local government web resources and services.